Au Train, MI

10:07 AM EDT on May 28, 2015 (GMT -0400)
WeatherMAX | | Change Station
CLOSE
Current Station
Personal Weather Station
Location: Chatham, MI
Elevation: 876 ft
Nearby Weather Stations

Elev 876 ft 46.34 °N, 86.93 °W | Updated 8 minutes ago

Fog
Fog
48.0 °F
Feels Like 48 °F
N
0.0
Wind Variable Wind from SSE
Gusts 2.0 mph

Today
High -- | Low -- °F
--% Chance of Precip.
Yesterday
High -- | Low -- °F
Precip. -- in
6:01 AM 9:28 PM
Waxing Gibbous, 76% visible
Pressure 30.19 in
Visibility 4.0 miles
Clouds Overcast 300 ft
Windchill 48 °F
Dew Point 47 °F
Humidity 95%
Rainfall 0.00 in
Snow Depth Not available.
UV 1 out of 12
Pollen 8.40 out of 12
Air Quality Not available.
Flu Activity Sporadic
METAR KSAW 281350Z 00000KT 4SM BR OVC003 07/07 A3019

More Conditions Fewer Conditions

Pressure 30.19 in
Visibility 4.0 miles
Clouds Overcast 300 ft
Windchill 48 °F
Dew Point 47 °F
Humidity 95%
Rainfall 0.00 in
Snow Depth Not available.
UV 1 out of 12
Pollen 8.40 out of 12
Air Quality Not available.
Flu Activity Sporadic
METAR KSAW 281350Z 00000KT 4SM BR OVC003 07/07 A3019

More Conditions Fewer Conditions

10-Day Weather Forecast

Almanac

Astronomy

May. 28, 2015 Rise Set
Actual Time
Civil Twilight
Nautical Twilight
Astronomical Twilight
Moon
Length of Visible Light
Length of Day
Tomorrow will be .
, % of the Moon is Illuminated

Today's Extremes

State Highs State Lows

Community

WunderPhotos

Upload Photos

1,824,979 photos uploaded!

WunderBlogs® & News

Nearby

Air Quality

  Air Quality AQ Index Pollutant
Not available.

Snow Depth

Station Depth Elevation

Earthquake Activity

City Distance Mag. Time & Date
Minimum magnitude displayed is 2.5.

Coastal Water Temperatures

Place Temperature

Stations

Nearby Weather Stations

Station Location Temp. Windchill Dew Point Humidity Wind Precip. Elev Updated Type